Time;durP1;ratioP1;P1;durP2;ratioP2;P2;SDS_P1;SDS_P2;PMS_P1;PMS_P2;Temp;Humidity;BMP_temperature;BMP_pressure;BME280_temperature;BME280_humidity;BME280_pressure;Samples;Min_cycle;Max_cycle;Signal;HPM_P1;HPM_P2
2024/03/18 00:01:58;;;;;;;42.17;37.60;;;12.60;82.90;;;;;;5048478;27;112607;-53
2024/03/18 00:04:24;;;;;;;44.50;38.03;;;12.40;83.40;;;;;;5046338;27;114427;-52
2024/03/18 00:06:50;;;;;;;43.30;38.60;;;12.30;84.10;;;;;;5046887;27;112644;-53
2024/03/18 00:09:15;;;;;;;44.38;39.90;;;12.30;84.20;;;;;;5047708;27;112782;-52
2024/03/18 00:11:41;;;;;;;47.10;41.30;;;12.30;84.30;;;;;;5048192;27;112662;-53
2024/03/18 00:14:07;;;;;;;47.30;41.70;;;12.40;83.90;;;;;;5028156;27;114461;-52
2024/03/18 00:16:33;;;;;;;48.35;43.58;;;12.50;83.50;;;;;;5046852;27;113185;-52
2024/03/18 00:18:59;;;;;;;50.40;42.58;;;12.30;83.80;;;;;;5047551;27;112790;-53
2024/03/18 00:21:24;;;;;;;45.00;40.42;;;12.30;83.70;;;;;;5047556;27;112837;-52
2024/03/18 00:23:50;;;;;;;46.65;41.55;;;12.30;83.90;;;;;;5047757;27;113565;-53
2024/03/18 00:26:16;;;;;;;47.33;42.10;;;12.30;83.70;;;;;;5050326;27;112892;-53
2024/03/18 00:28:41;;;;;;;46.88;41.85;;;12.30;83.70;;;;;;5051484;27;112717;-52
2024/03/18 00:31:07;;;;;;;46.33;41.47;;;12.30;84.00;;;;;;5051567;27;113400;-53
2024/03/18 00:33:33;;;;;;;45.80;41.20;;;12.40;83.70;;;;;;5050129;27;113408;-53
2024/03/18 00:35:58;;;;;;;44.83;40.17;;;12.40;83.60;;;;;;5050043;27;112815;-53
2024/03/18 00:38:24;;;;;;;45.83;40.92;;;12.40;83.60;;;;;;5051448;27;113267;-53
2024/03/18 00:41:44;;;;;;;46.20;41.42;;;12.40;83.50;;;;;;5042890;27;112986;-53
2024/03/18 00:43:36;;;;;;;49.63;43.53;;;12.50;83.50;;;;;;5046318;27;114392;-52
2024/03/18 00:46:02;;;;;;;47.15;42.05;;;12.50;83.70;;;;;;5049908;27;112938;-54
2024/03/18 00:48:29;;;;;;;50.67;42.15;;;12.50;83.70;;;;;;5050903;27;112464;-54
2024/03/18 00:50:55;;;;;;;48.00;43.05;;;12.60;83.50;;;;;;5051019;27;112788;-52
2024/03/18 00:53:21;;;;;;;53.83;46.15;;;12.50;83.70;;;;;;5050034;27;113219;-53
2024/03/18 00:55:47;;;;;;;50.92;44.58;;;12.50;83.70;;;;;;5049779;27;112700;-52
2024/03/18 00:58:13;;;;;;;47.90;42.90;;;12.60;83.70;;;;;;5032483;27;112790;-53
2024/03/18 01:00:38;;;;;;;50.50;44.70;;;12.60;83.60;;;;;;5051161;27;112751;-52
2024/03/18 01:03:04;;;;;;;52.47;44.90;;;12.70;83.20;;;;;;5049686;27;113678;-52
2024/03/18 01:05:30;;;;;;;49.70;44.30;;;12.70;83.40;;;;;;5054214;27;114714;-53
2024/03/18 01:07:58;;;;;;;49.28;42.95;;;12.70;83.50;;;;;;5053640;27;112619;-52
2024/03/18 01:10:24;;;;;;;49.92;44.67;;;12.70;83.70;;;;;;5053658;27;112765;-54
2024/03/18 01:12:50;;;;;;;50.97;45.78;;;12.70;83.50;;;;;;5049787;27;113479;-54
2024/03/18 01:15:16;;;;;;;47.90;42.90;;;12.80;83.40;;;;;;5056498;27;112830;-52
2024/03/18 01:17:41;;;;;;;49.72;44.30;;;12.80;83.20;;;;;;5059673;27;112464;-52
2024/03/18 01:20:16;;;;;;;48.03;43.08;;;12.90;83.00;;;;;;5052409;27;112715;-52
2024/03/18 01:22:42;;;;;;;52.75;47.05;;;12.80;83.30;;;;;;5062432;27;113243;-53
2024/03/18 01:25:13;;;;;;;51.53;46.03;;;12.80;83.40;;;;;;5050028;27;113617;-52
2024/03/18 01:27:43;;;;;;;50.95;44.80;;;12.80;83.50;;;;;;5056366;27;112566;-52
2024/03/18 01:30:13;;;;;;;50.22;44.97;;;12.80;83.20;;;;;;5050511;27;113007;-53
2024/03/18 01:32:39;;;;;;;49.90;44.75;;;12.70;83.50;;;;;;5050002;27;113222;-52
2024/03/18 01:35:06;;;;;;;47.95;42.72;;;12.80;83.50;;;;;;5048686;27;112809;-52
2024/03/18 01:37:32;;;;;;;47.95;42.80;;;12.90;83.10;;;;;;5053097;27;113247;-53
2024/03/18 01:39:58;;;;;;;51.78;46.28;;;12.80;83.20;;;;;;5049254;27;113000;-52
2024/03/18 01:42:23;;;;;;;46.08;41.10;;;12.80;83.30;;;;;;5035545;27;113333;-52
2024/03/18 01:44:54;;;;;;;45.47;40.42;;;12.90;83.20;;;;;;5049062;27;113007;-52
2024/03/18 01:47:21;;;;;;;46.55;41.75;;;12.90;83.10;;;;;;5049932;27;112531;-53
2024/03/18 01:49:49;;;;;;;45.33;40.60;;;12.80;83.30;;;;;;5050154;27;113028;-53
2024/03/18 01:52:16;;;;;;;48.33;43.17;;;12.60;83.90;;;;;;5048734;27;113328;-53
2024/03/18 01:54:42;;;;;;;55.80;49.80;;;12.70;84.10;;;;;;5014241;27;113039;-53
2024/03/18 01:57:09;;;;;;;58.75;51.78;;;12.60;84.00;;;;;;5049621;27;113291;-53
2024/03/18 01:59:35;;;;;;;53.47;46.75;;;12.50;84.40;;;;;;5049876;27;112712;-54
2024/03/18 02:02:01;;;;;;;53.17;47.15;;;12.50;84.50;;;;;;5049406;27;113761;-53
2024/03/18 02:04:27;;;;;;;53.55;47.88;;;12.60;84.00;;;;;;5048824;27;112675;-52
2024/03/18 02:06:54;;;;;;;54.22;48.67;;;12.60;84.00;;;;;;5049640;27;112791;-53
2024/03/18 02:09:20;;;;;;;55.28;48.13;;;12.60;83.80;;;;;;5031247;27;112997;-52
2024/03/18 02:11:49;;;;;;;53.53;47.78;;;12.70;83.70;;;;;;5048699;27;113178;-55
2024/03/18 02:14:15;;;;;;;52.03;46.38;;;12.70;83.80;;;;;;5048444;27;112711;-54
2024/03/18 02:16:42;;;;;;;53.03;47.22;;;12.80;83.80;;;;;;5049732;27;112459;-52
2024/03/18 02:19:08;;;;;;;54.15;46.63;;;12.70;84.10;;;;;;5049445;27;112755;-53
2024/03/18 02:21:34;;;;;;;57.33;46.85;;;12.80;83.90;;;;;;5048240;27;114265;-53
2024/03/18 02:24:00;;;;;;;54.80;46.45;;;12.70;84.00;;;;;;5047855;27;113749;-52
2024/03/18 02:26:25;;;;;;;53.33;47.47;;;12.60;84.20;;;;;;5049298;27;112816;-54
2024/03/18 02:28:51;;;;;;;58.17;50.67;;;12.50;84.50;;;;;;5049420;27;112890;-52
2024/03/18 02:31:18;;;;;;;58.47;51.42;;;12.60;84.50;;;;;;5048263;27;113233;-53
2024/03/18 02:33:44;;;;;;;54.75;48.88;;;12.60;84.40;;;;;;5048287;27;112825;-53
2024/03/18 02:36:10;;;;;;;58.38;51.50;;;12.70;84.30;;;;;;5049025;27;112452;-52
2024/03/18 02:38:35;;;;;;;58.15;51.33;;;12.70;84.00;;;;;;5049189;27;114834;-53
2024/03/18 02:41:01;;;;;;;61.70;52.83;;;12.80;83.80;;;;;;5038586;27;113229;-52
2024/03/18 02:43:27;;;;;;;61.50;53.30;;;12.80;83.70;;;;;;5043473;27;112816;-52
2024/03/18 02:45:52;;;;;;;66.07;56.53;;;12.80;83.50;;;;;;5048643;27;112840;-53
2024/03/18 02:48:18;;;;;;;61.70;52.35;;;12.80;83.60;;;;;;5048665;27;112752;-52
2024/03/18 02:50:44;;;;;;;59.05;51.22;;;12.80;83.50;;;;;;5047883;27;113758;-52
2024/03/18 02:53:10;;;;;;;61.67;48.95;;;12.80;83.80;;;;;;5047695;27;113191;-53
2024/03/18 02:55:35;;;;;;;58.50;51.17;;;12.80;83.80;;;;;;5048756;27;112503;-52
2024/03/18 02:58:01;;;;;;;60.35;51.22;;;12.60;84.50;;;;;;5049258;27;112718;-52
2024/03/18 03:00:27;;;;;;;58.35;50.85;;;12.50;84.80;;;;;;5048112;27;114555;-52
2024/03/18 03:02:53;;;;;;;58.60;52.22;;;12.50;84.90;;;;;;5047821;27;112720;-52
2024/03/18 03:05:19;;;;;;;62.55;53.25;;;12.60;84.60;;;;;;5048549;27;112634;-53
2024/03/18 03:07:44;;;;;;;59.50;53.10;;;12.60;84.40;;;;;;5048364;27;112949;-52
2024/03/18 03:10:10;;;;;;;60.13;53.53;;;12.60;84.50;;;;;;5047711;27;113151;-53
2024/03/18 03:12:36;;;;;;;62.97;55.63;;;12.80;84.30;;;;;;5047398;27;113431;-52
2024/03/18 03:15:02;;;;;;;61.65;52.50;;;12.80;84.20;;;;;;5048766;27;112674;-52
2024/03/18 03:17:28;;;;;;;58.83;52.45;;;12.80;84.20;;;;;;5048665;27;113273;-52
2024/03/18 03:19:54;;;;;;;61.45;54.75;;;12.60;84.80;;;;;;5047761;27;113006;-52
2024/03/18 03:22:19;;;;;;;62.38;54.53;;;12.70;84.70;;;;;;5047149;27;114251;-53
2024/03/18 03:24:48;;;;;;;59.95;53.38;;;12.60;85.00;;;;;;5048014;27;112830;-55
2024/03/18 03:27:15;;;;;;;62.90;52.90;;;12.70;85.00;;;;;;5048486;27;112728;-52
2024/03/18 03:29:42;;;;;;;64.28;54.42;;;12.70;84.60;;;;;;5047422;27;113310;-52
2024/03/18 03:32:10;;;;;;;63.72;53.92;;;12.80;84.40;;;;;;5013396;27;116777;-52
2024/03/18 03:34:37;;;;;;;58.95;52.22;;;12.80;84.30;;;;;;5028382;27;112740;-52
2024/03/18 03:37:03;;;;;;;62.38;52.95;;;12.60;84.90;;;;;;5033627;27;112713;-52
2024/03/18 03:39:29;;;;;;;59.58;51.38;;;12.60;84.90;;;;;;5038101;27;115032;-52
2024/03/18 03:41:55;;;;;;;66.18;55.10;;;12.80;84.80;;;;;;5034980;27;112943;-53
2024/03/18 03:44:21;;;;;;;59.38;53.03;;;12.90;84.40;;;;;;5048343;27;112932;-53
2024/03/18 03:46:50;;;;;;;59.63;52.45;;;12.80;84.50;;;;;;5048228;27;112846;-52
2024/03/18 03:49:16;;;;;;;60.08;52.30;;;12.80;84.40;;;;;;5034663;27;114515;-52
2024/03/18 03:51:42;;;;;;;59.45;52.97;;;12.80;84.40;;;;;;5045211;27;113553;-53
2024/03/18 03:54:09;;;;;;;59.53;53.30;;;12.70;84.50;;;;;;5048269;27;112782;-53
2024/03/18 03:56:35;;;;;;;59.38;52.90;;;12.80;84.60;;;;;;5047859;27;113042;-52
2024/03/18 03:59:00;;;;;;;58.05;51.67;;;12.80;84.60;;;;;;5046716;27;114773;-52
2024/03/18 04:01:26;;;;;;;58.97;52.53;;;12.90;84.40;;;;;;5047334;27;113615;-52
2024/03/18 04:03:52;;;;;;;57.20;51.20;;;12.90;84.30;;;;;;5047856;27;112528;-52
2024/03/18 04:06:17;;;;;;;58.22;51.88;;;12.80;84.20;;;;;;5035966;27;112698;-52
2024/03/18 04:08:43;;;;;;;62.40;54.40;;;12.90;84.10;;;;;;5044401;27;114545;-53
2024/03/18 04:11:09;;;;;;;59.33;53.00;;;12.80;84.20;;;;;;5046965;27;113466;-52
2024/03/18 04:13:35;;;;;;;60.83;54.20;;;12.80;84.40;;;;;;5047288;27;112954;-52
2024/03/18 04:16:02;;;;;;;64.40;54.30;;;12.80;84.30;;;;;;5047735;27;112749;-52
2024/03/18 04:18:28;;;;;;;58.28;52.13;;;12.90;84.30;;;;;;5028408;27;115279;-52
2024/03/18 04:20:53;;;;;;;59.67;53.30;;;12.90;84.20;;;;;;5046699;27;112630;-54
2024/03/18 04:23:19;;;;;;;59.83;53.40;;;12.90;84.20;;;;;;5047521;27;112716;-52
2024/03/18 04:25:45;;;;;;;62.25;55.55;;;12.90;84.10;;;;;;5047563;27;112640;-52
2024/03/18 04:28:10;;;;;;;58.72;52.28;;;13.00;83.80;;;;;;5046767;27;113306;-53
2024/03/18 04:30:37;;;;;;;60.75;54.13;;;13.00;83.80;;;;;;5046607;27;113533;-52
2024/03/18 04:33:04;;;;;;;59.95;53.17;;;12.90;84.00;;;;;;5047634;27;112734;-54
2024/03/18 04:35:30;;;;;;;59.28;52.97;;;12.90;84.20;;;;;;5047135;27;112913;-52
2024/03/18 04:37:55;;;;;;;60.90;53.75;;;12.90;84.20;;;;;;5046729;27;113290;-53
2024/03/18 04:40:25;;;;;;;59.63;51.38;;;12.90;84.20;;;;;;5035172;27;112477;-54
2024/03/18 04:42:52;;;;;;;56.92;50.97;;;12.90;84.30;;;;;;5045111;27;112754;-52
2024/03/18 04:45:21;;;;;;;56.42;50.22;;;12.90;84.30;;;;;;5047472;27;113651;-54
2024/03/18 04:47:51;;;;;;;56.78;50.65;;;12.90;84.40;;;;;;5045955;27;114661;-53
2024/03/18 04:50:22;;;;;;;56.42;50.25;;;12.90;84.10;;;;;;5046194;27;112756;-53
2024/03/18 04:52:49;;;;;;;56.97;50.97;;;12.80;84.10;;;;;;5047477;27;113102;-53
2024/03/18 04:55:15;;;;;;;60.95;54.28;;;12.90;84.20;;;;;;5047247;27;112751;-53
2024/03/18 04:57:41;;;;;;;56.92;51.03;;;12.90;84.10;;;;;;5046483;27;113160;-54
2024/03/18 05:00:11;;;;;;;58.47;52.13;;;12.90;84.10;;;;;;5046852;27;112634;-52
2024/03/18 05:02:41;;;;;;;59.58;53.45;;;12.80;84.10;;;;;;5047417;27;112582;-55
2024/03/18 05:05:09;;;;;;;60.53;51.67;;;12.80;83.90;;;;;;5046813;27;112673;-53
2024/03/18 05:07:35;;;;;;;59.15;52.38;;;12.80;83.90;;;;;;5027737;27;115475;-52
2024/03/18 05:10:00;;;;;;;59.35;53.17;;;12.90;83.90;;;;;;5046960;27;113137;-52
2024/03/18 05:12:27;;;;;;;57.20;51.38;;;12.90;83.70;;;;;;5050246;27;112591;-57
2024/03/18 05:14:52;;;;;;;57.22;51.42;;;12.80;84.00;;;;;;5032011;27;112867;-52
2024/03/18 05:17:18;;;;;;;55.15;49.50;;;12.80;84.00;;;;;;5049440;27;114321;-52
2024/03/18 05:19:44;;;;;;;55.88;49.88;;;12.80;84.20;;;;;;5049485;27;112982;-53
2024/03/18 05:22:12;;;;;;;56.13;50.30;;;12.90;84.10;;;;;;5050353;27;112920;-52
2024/03/18 05:24:43;;;;;;;55.72;50.15;;;12.90;83.90;;;;;;5050274;27;113094;-53
2024/03/18 05:27:12;;;;;;;58.40;52.13;;;12.90;83.70;;;;;;5049645;27;114041;-52
2024/03/18 05:29:38;;;;;;;58.28;51.90;;;12.90;83.90;;;;;;5049217;27;112818;-52
2024/03/18 05:32:15;;;;;;;57.90;51.67;;;12.90;84.00;;;;;;5050182;27;112697;-52
2024/03/18 05:34:42;;;;;;;59.08;52.85;;;12.90;83.80;;;;;;5050358;27;112810;-53
2024/03/18 05:37:09;;;;;;;57.55;51.30;;;12.90;83.70;;;;;;5049094;27;113414;-53
2024/03/18 05:39:36;;;;;;;58.40;52.20;;;13.00;83.70;;;;;;5044010;27;112904;-54
2024/03/18 05:42:02;;;;;;;58.13;51.88;;;12.90;83.60;;;;;;5041109;27;112685;-53
2024/03/18 05:44:28;;;;;;;59.60;53.25;;;12.90;84.10;;;;;;5049790;27;113019;-52
2024/03/18 05:46:54;;;;;;;60.88;54.67;;;12.90;84.20;;;;;;5048840;27;114462;-53
2024/03/18 05:49:19;;;;;;;56.78;50.28;;;12.90;84.20;;;;;;5048642;27;114402;-52
2024/03/18 05:51:48;;;;;;;57.00;50.97;;;12.90;84.10;;;;;;5050044;27;112798;-52
2024/03/18 05:54:16;;;;;;;57.92;51.03;;;12.90;84.00;;;;;;5049893;27;112964;-53
2024/03/18 05:56:43;;;;;;;56.35;50.15;;;12.80;84.30;;;;;;5048675;27;113492;-53
2024/03/18 05:59:12;;;;;;;56.70;50.72;;;12.80;84.40;;;;;;5048978;27;113389;-53
2024/03/18 06:01:38;;;;;;;57.13;50.85;;;12.80;84.80;;;;;;5050242;27;112880;-53
2024/03/18 06:04:04;;;;;;;53.53;48.03;;;12.80;84.90;;;;;;5049632;27;113191;-52
2024/03/18 06:06:31;;;;;;;52.72;47.15;;;12.70;84.70;;;;;;5048417;27;113228;-52
2024/03/18 06:08:57;;;;;;;53.88;48.33;;;12.80;84.90;;;;;;5048780;27;113174;-52
2024/03/18 06:11:22;;;;;;;52.45;47.05;;;12.80;84.60;;;;;;5049413;27;112916;-52
2024/03/18 06:13:48;;;;;;;54.78;49.05;;;12.80;84.50;;;;;;5049279;27;112662;-52
2024/03/18 06:16:14;;;;;;;53.92;48.30;;;12.90;84.40;;;;;;5048461;27;114857;-52
2024/03/18 06:18:42;;;;;;;53.45;47.88;;;12.90;84.60;;;;;;5048339;27;113149;-53
2024/03/18 06:21:16;;;;;;;53.10;47.38;;;12.70;84.80;;;;;;5049688;27;112694;-53
2024/03/18 06:23:54;;;;;;;52.10;46.50;;;12.80;84.80;;;;;;5049436;27;112920;-53
2024/03/18 06:26:21;;;;;;;55.10;49.20;;;12.90;84.50;;;;;;5029846;27;116316;-54
2024/03/18 06:28:46;;;;;;;55.00;47.97;;;12.80;84.90;;;;;;5048399;27;112606;-53
2024/03/18 06:31:13;;;;;;;52.97;47.38;;;12.90;84.70;;;;;;5049301;27;112487;-53
2024/03/18 06:33:40;;;;;;;52.88;47.40;;;12.90;84.30;;;;;;5049237;27;113093;-53
2024/03/18 06:36:09;;;;;;;53.60;47.95;;;13.00;84.50;;;;;;5048076;27;113458;-53
2024/03/18 06:38:36;;;;;;;51.03;45.78;;;13.00;84.10;;;;;;5047868;27;112836;-53
2024/03/18 06:41:02;;;;;;;51.00;45.72;;;13.10;84.00;;;;;;5034912;27;112598;-52
2024/03/18 06:43:28;;;;;;;51.55;45.95;;;13.00;83.90;;;;;;5049258;27;113109;-52
2024/03/18 06:45:54;;;;;;;51.28;45.92;;;13.00;84.20;;;;;;5048022;27;113379;-52
2024/03/18 06:48:19;;;;;;;51.97;46.47;;;13.10;84.10;;;;;;5048247;27;112943;-52
2024/03/18 06:50:45;;;;;;;50.92;45.65;;;13.00;84.20;;;;;;5048895;27;112757;-53
2024/03/18 06:53:11;;;;;;;48.47;43.33;;;13.10;84.00;;;;;;5048995;27;112654;-55
2024/03/18 06:55:38;;;;;;;49.15;43.75;;;13.10;84.00;;;;;;5047867;27;113393;-53
2024/03/18 06:58:04;;;;;;;48.67;43.58;;;13.30;83.70;;;;;;5032811;27;112992;-53
2024/03/18 07:00:31;;;;;;;50.00;44.78;;;13.10;83.90;;;;;;5030518;27;112820;-53
2024/03/18 07:02:57;;;;;;;52.60;45.05;;;13.30;84.00;;;;;;5040729;27;112978;-52
2024/03/18 07:05:23;;;;;;;50.35;44.53;;;13.20;84.10;;;;;;5042487;27;114972;-53
2024/03/18 07:07:50;;;;;;;50.72;45.05;;;13.30;84.20;;;;;;5032566;27;113867;-53
2024/03/18 07:10:16;;;;;;;48.85;43.70;;;13.30;84.30;;;;;;5038561;27;113771;-52
2024/03/18 07:12:43;;;;;;;50.92;45.45;;;13.40;83.80;;;;;;5033446;27;112807;-52
2024/03/18 07:15:11;;;;;;;52.65;46.78;;;13.40;83.90;;;;;;5036109;27;113613;-52
2024/03/18 07:17:37;;;;;;;51.92;44.85;;;13.40;83.80;;;;;;5038470;27;113634;-52
2024/03/18 07:20:06;;;;;;;54.22;45.80;;;13.40;83.90;;;;;;5045358;27;113016;-52
2024/03/18 07:22:35;;;;;;;56.53;45.35;;;13.50;83.80;;;;;;5045446;27;112916;-53
2024/03/18 07:25:02;;;;;;;56.65;45.55;;;13.60;83.40;;;;;;5043316;27;113602;-53
2024/03/18 07:27:27;;;;;;;58.92;46.53;;;13.70;83.40;;;;;;5045196;27;112809;-55
2024/03/18 07:29:57;;;;;;;52.38;45.05;;;13.80;83.30;;;;;;5045838;27;112877;-52
2024/03/18 07:32:24;;;;;;;53.28;46.40;;;13.80;83.30;;;;;;5045474;27;113065;-53
2024/03/18 07:34:51;;;;;;;53.65;44.70;;;13.80;83.40;;;;;;5027535;27;113828;-52
2024/03/18 07:37:17;;;;;;;50.78;44.25;;;13.80;83.30;;;;;;5044252;27;114308;-52
2024/03/18 07:39:43;;;;;;;52.83;43.95;;;13.70;83.50;;;;;;5040760;27;112822;-52
2024/03/18 07:42:11;;;;;;;51.88;45.88;;;13.80;83.40;;;;;;5040475;27;112978;-52
2024/03/18 07:44:37;;;;;;;49.75;44.00;;;13.70;83.10;;;;;;5047003;27;113875;-58
2024/03/18 07:47:03;;;;;;;51.90;43.90;;;13.80;82.90;;;;;;5047186;27;112630;-56
2024/03/18 07:49:29;;;;;;;52.97;44.50;;;13.90;82.70;;;;;;5029848;27;113247;-56
2024/03/18 07:51:54;;;;;;;53.35;45.70;;;13.90;82.40;;;;;;5048231;27;112676;-56
2024/03/18 07:54:20;;;;;;;52.10;44.50;;;14.00;82.30;;;;;;5046859;27;114474;-56
2024/03/18 07:56:46;;;;;;;49.85;44.40;;;13.90;82.40;;;;;;5046959;27;113973;-56
2024/03/18 07:59:12;;;;;;;47.72;42.83;;;13.90;82.30;;;;;;5048299;27;112528;-56
2024/03/18 08:01:38;;;;;;;50.13;44.25;;;14.10;82.10;;;;;;5048372;27;113109;-56
2024/03/18 08:04:04;;;;;;;52.92;44.75;;;14.10;81.80;;;;;;5047072;27;113190;-55
2024/03/18 08:06:30;;;;;;;53.05;43.53;;;14.10;82.00;;;;;;5046835;27;112968;-55
2024/03/18 08:08:55;;;;;;;50.25;43.80;;;14.20;81.90;;;;;;5029550;27;112758;-56
2024/03/18 08:11:21;;;;;;;48.65;42.70;;;14.30;81.70;;;;;;5048078;27;112892;-56
2024/03/18 08:13:47;;;;;;;50.08;44.72;;;14.30;81.40;;;;;;5046861;27;113628;-59
2024/03/18 08:16:12;;;;;;;49.40;44.25;;;14.30;81.30;;;;;;5046847;27;113005;-56
2024/03/18 08:18:38;;;;;;;50.88;44.67;;;14.30;81.40;;;;;;5047942;27;112845;-56
2024/03/18 08:21:04;;;;;;;49.75;44.28;;;14.30;81.50;;;;;;5047738;27;114151;-55
2024/03/18 08:23:30;;;;;;;56.30;46.22;;;14.40;81.30;;;;;;5046410;27;113197;-56
2024/03/18 08:25:55;;;;;;;56.03;44.67;;;14.50;81.10;;;;;;5046627;27;112723;-56
2024/03/18 08:28:21;;;;;;;52.80;43.60;;;14.60;81.30;;;;;;5047844;27;112552;-56
2024/03/18 08:30:47;;;;;;;49.50;43.03;;;14.60;81.30;;;;;;5047861;27;113267;-58
2024/03/18 08:33:13;;;;;;;51.75;44.92;;;14.60;81.20;;;;;;5049618;27;114492;-56
2024/03/18 08:35:38;;;;;;;57.75;44.75;;;14.60;80.80;;;;;;5044911;27;112634;-57
2024/03/18 08:38:05;;;;;;;51.80;44.13;;;14.60;80.80;;;;;;5047679;27;112614;-51
2024/03/18 08:40:31;;;;;;;51.55;44.80;;;14.70;81.00;;;;;;5034902;27;112590;-52
2024/03/18 08:42:57;;;;;;;56.30;44.60;;;14.70;80.70;;;;;;5044816;27;114395;-51
2024/03/18 08:45:22;;;;;;;52.05;44.58;;;14.70;80.90;;;;;;5047747;27;113253;-51
2024/03/18 08:47:48;;;;;;;52.30;44.33;;;14.70;80.90;;;;;;5050979;27;113080;-53
2024/03/18 08:50:14;;;;;;;62.90;45.85;;;14.70;80.70;;;;;;5051066;27;113105;-51
2024/03/18 08:52:40;;;;;;;54.70;44.00;;;14.60;80.90;;;;;;5049695;27;113133;-51
2024/03/18 08:55:07;;;;;;;66.35;45.92;;;14.50;81.30;;;;;;5049977;27;113209;-51
2024/03/18 08:57:32;;;;;;;61.10;45.17;;;14.40;81.80;;;;;;5050949;27;112782;-51
2024/03/18 08:59:58;;;;;;;53.22;44.70;;;14.40;81.60;;;;;;5050592;27;112692;-52
2024/03/18 09:02:24;;;;;;;279.48;60.78;;;14.50;81.60;;;;;;5050501;27;113117;-59
2024/03/18 09:04:50;;;;;;;64.35;43.85;;;14.80;81.30;;;;;;5049542;27;112966;-58
2024/03/18 09:07:15;;;;;;;57.45;43.95;;;15.00;80.60;;;;;;5050769;27;112890;-60
2024/03/18 09:09:41;;;;;;;51.58;42.90;;;15.10;80.00;;;;;;5050498;27;112757;-60
2024/03/18 09:12:07;;;;;;;50.30;44.83;;;15.20;79.50;;;;;;5049276;27;113553;-60
2024/03/18 09:14:33;;;;;;;49.55;44.05;;;15.30;79.20;;;;;;5049543;27;112974;-59
2024/03/18 09:17:02;;;;;;;52.03;43.17;;;15.20;79.20;;;;;;5050627;27;113109;-60
2024/03/18 09:19:30;;;;;;;50.78;44.20;;;15.20;79.10;;;;;;5050533;27;112833;-59
2024/03/18 09:21:56;;;;;;;48.10;42.20;;;15.40;78.90;;;;;;5049415;27;113160;-60
2024/03/18 09:24:23;;;;;;;48.88;42.63;;;15.30;78.80;;;;;;5049557;27;112855;-59
2024/03/18 09:26:49;;;;;;;47.70;42.58;;;15.40;78.80;;;;;;5050362;27;112653;-60
2024/03/18 09:29:14;;;;;;;49.22;42.97;;;15.40;78.50;;;;;;5050211;27;112700;-60
2024/03/18 09:31:42;;;;;;;52.13;43.25;;;15.40;78.50;;;;;;5049209;27;113227;-60
2024/03/18 09:34:09;;;;;;;53.65;45.00;;;15.40;78.60;;;;;;5049133;27;113289;-60
2024/03/18 09:36:35;;;;;;;51.22;45.55;;;15.40;78.70;;;;;;5031714;27;112582;-60
2024/03/18 09:39:01;;;;;;;52.22;44.20;;;15.40;78.50;;;;;;5050206;27;112697;-60
2024/03/18 09:41:28;;;;;;;57.65;46.42;;;15.50;78.30;;;;;;5035110;27;113245;-60
2024/03/18 09:43:54;;;;;;;51.45;44.70;;;15.40;78.30;;;;;;5049097;27;112568;-60
2024/03/18 09:46:21;;;;;;;50.55;43.75;;;15.40;78.50;;;;;;5049903;27;112492;-60
2024/03/18 09:48:47;;;;;;;54.65;45.63;;;15.30;78.40;;;;;;5050183;27;112646;-60
2024/03/18 09:51:17;;;;;;;52.85;43.63;;;15.30;78.60;;;;;;5048743;27;115048;-60
2024/03/18 09:53:46;;;;;;;51.70;44.95;;;15.20;79.10;;;;;;5048984;27;112667;-59
2024/03/18 09:56:15;;;;;;;57.05;46.42;;;15.10;79.40;;;;;;5049229;27;112715;-60
2024/03/18 09:58:42;;;;;;;49.95;44.47;;;15.20;79.30;;;;;;5049909;27;112907;-60
2024/03/18 10:01:11;;;;;;;53.33;45.58;;;15.10;79.20;;;;;;5049099;27;114669;-61
2024/03/18 10:03:42;;;;;;;52.00;44.05;;;15.00;79.60;;;;;;5048714;27;113966;-60
2024/03/18 10:06:08;;;;;;;54.97;44.55;;;15.10;79.60;;;;;;5049639;27;112755;-60
2024/03/18 10:08:39;;;;;;;53.78;43.42;;;15.30;79.20;;;;;;5049483;27;112756;-60
2024/03/18 10:11:07;;;;;;;50.35;42.22;;;15.60;78.60;;;;;;5048455;27;114851;-59
2024/03/18 10:13:33;;;;;;;50.50;43.92;;;15.90;77.90;;;;;;5048040;27;113894;-60
2024/03/18 10:16:00;;;;;;;54.97;43.72;;;16.30;76.90;;;;;;5049762;27;112570;-60
2024/03/18 10:18:26;;;;;;;50.92;43.88;;;16.60;75.60;;;;;;5049430;27;112812;-60
2024/03/18 10:20:52;;;;;;;51.83;44.40;;;16.90;74.40;;;;;;5048506;27;114525;-60
2024/03/18 10:23:20;;;;;;;49.22;43.50;;;17.10;73.70;;;;;;5048232;27;113081;-60
2024/03/18 10:25:45;;;;;;;50.85;42.72;;;17.40;73.20;;;;;;5049128;27;113893;-61
2024/03/18 10:28:13;;;;;;;49.42;43.45;;;17.50;72.70;;;;;;5049461;27;112601;-60
2024/03/18 10:30:39;;;;;;;47.90;42.47;;;17.60;71.70;;;;;;5048174;27;113783;-60
2024/03/18 10:33:07;;;;;;;50.47;42.72;;;17.60;71.80;;;;;;5048177;27;113721;-60
2024/03/18 10:35:34;;;;;;;46.60;41.15;;;17.70;71.90;;;;;;5049048;27;112687;-60
2024/03/18 10:38:03;;;;;;;46.05;40.17;;;17.50;71.50;;;;;;5049142;27;112688;-60
2024/03/18 10:40:37;;;;;;;44.85;39.47;;;17.40;71.60;;;;;;5017407;28;117164;-60
2024/03/18 10:43:11;;;;;;;47.88;41.50;;;17.40;71.60;;;;;;5029071;27;113810;-61
2024/03/18 10:45:43;;;;;;;44.47;39.58;;;17.20;71.70;;;;;;5049298;27;112551;-61
2024/03/18 10:48:13;;;;;;;45.38;40.58;;;17.30;71.80;;;;;;5049103;27;112516;-60
2024/03/18 10:50:39;;;;;;;44.97;39.50;;;17.30;71.50;;;;;;5048218;27;113339;-61
2024/03/18 10:53:18;;;;;;;45.10;40.30;;;17.40;71.10;;;;;;5047729;27;114514;-61
2024/03/18 10:55:45;;;;;;;45.03;39.63;;;17.40;70.80;;;;;;5048929;27;112724;-60
2024/03/18 10:58:12;;;;;;;44.03;38.20;;;17.50;70.70;;;;;;5049044;27;113091;-60
2024/03/18 11:00:40;;;;;;;42.15;37.80;;;17.50;70.70;;;;;;5048315;27;114682;-59
2024/03/18 11:03:20;;;;;;;42.88;37.72;;;17.40;70.50;;;;;;5047880;27;112715;-61
2024/03/18 11:05:54;;;;;;;41.58;35.35;;;17.40;70.40;;;;;;5030498;27;114471;-61
2024/03/18 11:08:23;;;;;;;44.17;38.67;;;17.60;69.90;;;;;;5048002;27;112648;-60
2024/03/18 11:10:54;;;;;;;42.40;37.78;;;17.70;70.10;;;;;;5047521;27;114980;-61
2024/03/18 11:13:31;;;;;;;41.43;37.07;;;17.60;69.70;;;;;;5047049;27;113273;-60
2024/03/18 11:16:00;;;;;;;43.58;38.17;;;17.50;70.60;;;;;;5048954;27;112590;-61
2024/03/18 11:18:27;;;;;;;42.75;37.58;;;17.40;70.20;;;;;;5048572;27;113085;-60
2024/03/18 11:20:55;;;;;;;46.05;38.35;;;17.20;70.60;;;;;;5047444;27;115286;-60
2024/03/18 11:23:29;;;;;;;43.58;38.67;;;17.10;71.90;;;;;;5047313;27;112662;-60
2024/03/18 11:26:13;;;;;;;44.22;38.55;;;17.00;72.10;;;;;;5048281;27;112647;-60
2024/03/18 11:28:45;;;;;;;46.20;40.45;;;16.90;73.00;;;;;;5048338;27;112606;-60
2024/03/18 11:31:15;;;;;;;51.65;43.97;;;16.80;73.10;;;;;;5047444;27;115252;-61
2024/03/18 11:33:43;;;;;;;46.75;40.78;;;16.90;73.60;;;;;;5047002;27;115002;-60
2024/03/18 11:36:20;;;;;;;48.22;43.03;;;16.70;73.50;;;;;;5048180;27;112569;-60
2024/03/18 11:38:47;;;;;;;48.28;42.63;;;16.70;74.70;;;;;;5048538;27;112606;-61
2024/03/18 11:41:13;;;;;;;47.38;41.78;;;16.60;74.70;;;;;;5028936;27;113260;-60
2024/03/18 11:43:39;;;;;;;47.92;41.30;;;16.60;75.60;;;;;;5037353;27;112745;-61
2024/03/18 11:46:06;;;;;;;48.65;40.95;;;16.40;74.90;;;;;;5047970;27;112993;-61
2024/03/18 11:48:32;;;;;;;46.08;39.00;;;16.30;74.90;;;;;;5048251;27;112666;-60
2024/03/18 11:50:58;;;;;;;47.63;42.42;;;16.40;73.80;;;;;;5046945;27;115232;-61
2024/03/18 11:53:24;;;;;;;49.85;44.25;;;16.40;75.20;;;;;;5046983;27;113742;-61
2024/03/18 11:55:54;;;;;;;48.38;41.83;;;16.50;75.50;;;;;;5048028;27;112664;-60
2024/03/18 11:58:20;;;;;;;49.25;43.83;;;16.30;75.60;;;;;;5047785;27;112974;-61
2024/03/18 12:00:50;;;;;;;48.90;43.28;;;16.30;77.00;;;;;;5047462;27;113797;-60
2024/03/18 12:03:16;;;;;;;49.40;42.95;;;16.30;77.70;;;;;;5046433;27;113827;-60
2024/03/18 12:05:49;;;;;;;51.97;45.58;;;16.10;77.30;;;;;;5047668;27;112841;-60
2024/03/18 12:08:20;;;;;;;48.00;42.95;;;16.10;78.50;;;;;;5045111;27;114632;-60
2024/03/18 12:10:54;;;;;;;48.97;42.77;;;16.00;78.60;;;;;;5036318;27;114490;-60
2024/03/18 12:13:26;;;;;;;49.67;43.50;;;15.80;78.30;;;;;;5046676;27;112659;-61
2024/03/18 12:15:52;;;;;;;49.35;43.25;;;15.70;78.50;;;;;;5047755;27;112526;-60
2024/03/18 12:18:18;;;;;;;51.78;45.67;;;15.70;78.80;;;;;;5047815;27;112825;-60